Time;durP1;ratioP1;P1;durP2;ratioP2;P2;SDS_P1;SDS_P2;PMS_P1;PMS_P2;Temp;Humidity;BMP_temperature;BMP_pressure;BME280_temperature;BME280_humidity;BME280_pressure;Samples;Min_cycle;Max_cycle;Signal;HPM_P1;HPM_P2
2023/08/10 00:00:16;;;;;;;;;;;;;;;22.48;51.40;100790.78;5076821;28;1202;-31
2023/08/10 00:02:42;;;;;;;;;;;;;;;23.89;46.50;100792.97;5076911;28;1498;-32
2023/08/10 00:05:09;;;;;;;;;;;;;;;23.82;48.14;100782.00;5076228;28;1039;-33
2023/08/10 00:07:35;;;;;;;;;;;;;;;25.09;43.36;100789.47;5076610;28;1063;-33
2023/08/10 00:10:01;;;;;;;;;;;;;;;23.33;45.91;100793.25;5062699;28;1230;-33
2023/08/10 00:12:27;;;;;;;;;;;;;;;22.58;50.95;100781.84;5069731;28;985;-31
2023/08/10 00:14:52;;;;;;;;;;;;;;;24.17;45.39;100781.22;5076262;28;1028;-33
2023/08/10 00:17:18;;;;;;;;;;;;;;;24.23;46.01;100783.25;5076760;28;1987;-32
2023/08/10 00:19:44;;;;;;;;;;;;;;;24.67;45.81;100778.66;5076348;28;1116;-33
2023/08/10 00:22:10;;;;;;;;;;;;;;;22.73;47.64;100774.16;5062529;28;892;-31
2023/08/10 00:24:36;;;;;;;;;;;;;;;22.73;50.39;100766.09;5075387;28;1044;-31
2023/08/10 00:27:02;;;;;;;;;;;;;;;24.25;45.11;100761.56;5070746;28;1837;-33
2023/08/10 00:29:28;;;;;;;;;;;;;;;24.55;45.18;100767.38;5062198;28;1262;-30
2023/08/10 00:31:54;;;;;;;;;;;;;;;24.26;46.73;100765.94;5076036;28;1027;-32
2023/08/10 00:34:19;;;;;;;;;;;;;;;22.70;47.23;100753.84;5062083;28;1182;-32
2023/08/10 00:36:45;;;;;;;;;;;;;;;23.40;48.70;100759.47;5051254;28;1914;-32
2023/08/10 00:39:11;;;;;;;;;;;;;;;24.23;47.24;100761.72;5076226;28;1111;-34
2023/08/10 00:41:38;;;;;;;;;;;;;;;24.83;44.00;100772.44;5058010;28;1189;-31
2023/08/10 00:44:04;;;;;;;;;;;;;;;24.46;46.44;100761.13;5075848;28;1036;-32
2023/08/10 00:46:29;;;;;;;;;;;;;;;22.38;50.51;100757.84;5061374;28;813;-28
2023/08/10 00:48:55;;;;;;;;;;;;;;;23.72;47.44;100760.63;5057596;28;1183;-32
2023/08/10 00:51:20;;;;;;;;;;;;;;;23.75;48.96;100759.50;5066996;28;1162;-29
2023/08/10 00:53:46;;;;;;;;;;;;;;;24.99;43.44;100768.94;5062207;28;1082;-34
2023/08/10 00:56:12;;;;;;;;;;;;;;;23.29;45.20;100765.06;5076036;28;992;-32
2023/08/10 00:58:37;;;;;;;;;;;;;;;22.46;52.26;100762.44;5063616;28;2473;-30
2023/08/10 01:01:04;;;;;;;;;;;;;;;24.09;46.00;100760.47;5075815;28;1023;-36
2023/08/10 01:03:30;;;;;;;;;;;;;;;24.34;46.50;100768.63;5057871;28;1135;-29
2023/08/10 01:06:00;;;;;;;;;;;;;;;24.87;45.88;100768.41;5075559;28;1537;-31
2023/08/10 01:08:35;;;;;;;;;;;;;;;22.91;47.30;100757.19;5058324;28;1124;-31
2023/08/10 01:11:13;;;;;;;;;;;;;;;23.14;48.81;100754.88;5041951;28;1152;-35
2023/08/10 01:13:47;;;;;;;;;;;;;;;24.13;47.53;100743.03;5075858;28;1095;-33
2023/08/10 01:16:13;;;;;;;;;;;;;;;24.83;43.73;100748.22;5057155;28;1044;-29
2023/08/10 01:18:38;;;;;;;;;;;;;;;24.41;46.10;100739.25;5057889;28;1910;-36
2023/08/10 01:21:13;;;;;;;;;;;;;;;22.39;51.25;100732.72;5056628;28;1012;-31
2023/08/10 01:23:41;;;;;;;;;;;;;;;23.81;46.80;100729.31;5037939;28;1049;-29
2023/08/10 01:26:06;;;;;;;;;;;;;;;24.14;47.09;100731.25;5074326;28;1079;-32
2023/08/10 01:28:33;;;;;;;;;;;;;;;25.14;42.99;100736.81;5058186;28;2654;-36
2023/08/10 01:30:59;;;;;;;;;;;;;;;23.08;46.50;100734.03;5074421;28;1060;-28
2023/08/10 01:33:27;;;;;;;;;;;;;;;22.65;50.62;100725.81;5055384;28;1338;-31
2023/08/10 01:35:53;;;;;;;;;;;;;;;24.14;45.41;100717.00;5062047;28;1221;-29
2023/08/10 01:38:19;;;;;;;;;;;;;;;24.31;45.73;100729.50;5057691;28;2028;-32
2023/08/10 01:40:45;;;;;;;;;;;;;;;24.32;46.77;100730.34;5075880;28;1131;-30
2023/08/10 01:43:12;;;;;;;;;;;;;;;25.03;43.27;100726.38;5057612;28;1107;-34
2023/08/10 01:45:38;;;;;;;;;;;;;;;23.97;42.00;100725.84;5072265;28;1194;-34
2023/08/10 01:48:06;;;;;;;;;;;;;;;22.46;52.04;100728.44;5038014;28;1005;-34
2023/08/10 01:50:35;;;;;;;;;;;;;;;23.81;46.83;100723.09;5073162;28;1160;-33
2023/08/10 01:53:05;;;;;;;;;;;;;;;24.08;47.28;100727.41;5038363;28;1223;-31
2023/08/10 01:55:31;;;;;;;;;;;;;;;24.99;44.36;100720.50;5067875;28;1182;-31
2023/08/10 01:57:56;;;;;;;;;;;;;;;23.06;46.78;100718.09;5046767;28;1974;-31
2023/08/10 02:00:22;;;;;;;;;;;;;;;22.99;49.61;100714.34;5057359;28;1254;-32
2023/08/10 02:02:48;;;;;;;;;;;;;;;24.08;46.65;100713.97;5057553;28;1151;-33
2023/08/10 02:05:13;;;;;;;;;;;;;;;24.48;44.82;100726.00;5077545;28;1175;-30
2023/08/10 02:07:41;;;;;;;;;;;;;;;24.07;47.38;100725.69;5060778;28;1340;-31
2023/08/10 02:10:07;;;;;;;;;;;;;;;25.08;42.99;100732.09;5072967;28;1159;-32
2023/08/10 02:12:32;;;;;;;;;;;;;;;23.84;41.81;100725.44;5059333;28;1064;-32
2023/08/10 02:14:59;;;;;;;;;;;;;;;22.54;51.67;100730.34;5060898;28;1147;-29
2023/08/10 02:17:25;;;;;;;;;;;;;;;24.04;46.01;100735.94;5060808;28;1910;-32
2023/08/10 02:19:51;;;;;;;;;;;;;;;24.12;46.87;100738.66;5071765;28;1052;-32
2023/08/10 02:22:16;;;;;;;;;;;;;;;24.76;45.38;100742.66;5065771;28;1178;-36
2023/08/10 02:24:42;;;;;;;;;;;;;;;24.76;43.72;100744.50;5066412;28;1187;-33
2023/08/10 02:27:08;;;;;;;;;;;;;;;24.32;46.15;100744.63;5079098;28;1154;-29
2023/08/10 02:29:33;;;;;;;;;;;;;;;25.16;42.52;100753.63;5078848;28;1066;-33
2023/08/10 02:32:00;;;;;;;;;;;;;;;23.56;43.28;100734.56;5078642;28;1115;-29
2023/08/10 02:34:26;;;;;;;;;;;;;;;22.59;52.25;100743.28;5072215;28;1147;-31
2023/08/10 02:36:51;;;;;;;;;;;;;;;23.85;46.52;100749.47;5059374;28;1910;-30
2023/08/10 02:39:17;;;;;;;;;;;;;;;24.06;46.98;100756.28;5060855;28;1127;-31
2023/08/10 02:41:43;;;;;;;;;;;;;;;24.89;43.41;100747.53;5078659;28;1122;-31
2023/08/10 02:44:09;;;;;;;;;;;;;;;24.74;44.24;100746.56;5060107;28;1021;-31
2023/08/10 02:46:34;;;;;;;;;;;;;;;24.25;46.74;100753.50;5070649;28;1131;-33
2023/08/10 02:49:00;;;;;;;;;;;;;;;22.31;48.19;100746.88;5048357;28;1202;-27
2023/08/10 02:51:26;;;;;;;;;;;;;;;23.31;48.07;100749.63;5049966;28;1221;-30
2023/08/10 02:53:52;;;;;;;;;;;;;;;23.62;48.81;100742.97;5065953;28;1039;-33
2023/08/10 02:56:18;;;;;;;;;;;;;;;24.64;43.64;100752.91;5078129;28;1063;-30
2023/08/10 02:58:44;;;;;;;;;;;;;;;24.24;46.33;100747.28;5076462;28;1977;-33
2023/08/10 03:01:09;;;;;;;;;;;;;;;25.23;42.93;100743.03;5078298;28;1284;-33
2023/08/10 03:03:37;;;;;;;;;;;;;;;22.94;46.99;100747.00;5060128;28;1322;-31
2023/08/10 03:06:03;;;;;;;;;;;;;;;23.02;49.34;100745.41;5059707;28;1107;-32
2023/08/10 03:08:28;;;;;;;;;;;;;;;24.25;46.17;100737.38;5078173;28;1047;-32
2023/08/10 03:10:56;;;;;;;;;;;;;;;24.45;44.86;100732.56;5050678;28;1120;-32
2023/08/10 03:13:22;;;;;;;;;;;;;;;24.11;46.87;100734.28;5047124;28;1323;-29
2023/08/10 03:15:49;;;;;;;;;;;;;;;25.21;42.29;100736.16;5059831;28;1222;-36
2023/08/10 03:18:16;;;;;;;;;;;;;;;24.41;44.87;100731.19;5059991;28;1981;-37
2023/08/10 03:20:42;;;;;;;;;;;;;;;23.89;45.34;100731.16;5059452;28;1351;-35
2023/08/10 03:23:08;;;;;;;;;;;;;;;23.14;47.05;100724.53;5049953;28;1185;-32
2023/08/10 03:25:34;;;;;;;;;;;;;;;23.14;47.03;100727.22;5053633;28;1480;-33
2023/08/10 03:27:59;;;;;;;;;;;;;;;21.96;50.17;100719.00;5059800;28;1254;-38
2023/08/10 03:30:25;;;;;;;;;;;;;;;21.99;50.29;100726.75;5059771;28;1154;-40
2023/08/10 03:32:51;;;;;;;;;;;;;;;22.04;50.53;100729.00;5065580;28;1319;-35
2023/08/10 03:35:16;;;;;;;;;;;;;;;22.14;49.99;100727.09;5060437;28;1044;-39
2023/08/10 03:37:42;;;;;;;;;;;;;;;21.58;51.40;100732.38;5046220;28;1919;-38
2023/08/10 03:40:08;;;;;;;;;;;;;;;22.36;49.66;100731.19;5077164;28;1027;-34
2023/08/10 03:42:33;;;;;;;;;;;;;;;21.88;50.69;100734.00;5049030;28;905;-32
2023/08/10 03:45:00;;;;;;;;;;;;;;;21.94;50.48;100726.38;5052942;28;1213;-37
2023/08/10 03:47:25;;;;;;;;;;;;;;;22.20;50.13;100734.53;5066178;28;981;-34
2023/08/10 03:49:51;;;;;;;;;;;;;;;22.22;49.94;100734.41;5053260;28;1225;-34
2023/08/10 03:52:16;;;;;;;;;;;;;;;22.20;50.21;100729.19;5060007;28;1132;-35
2023/08/10 03:54:42;;;;;;;;;;;;;;;23.42;47.77;100729.78;5052727;28;1390;-34
2023/08/10 03:57:08;;;;;;;;;;;;;;;24.08;45.72;100745.34;5058589;28;1906;-31
2023/08/10 03:59:34;;;;;;;;;;;;;;;24.35;43.41;100738.09;5034784;28;1281;-30
2023/08/10 04:02:00;;;;;;;;;;;;;;;24.85;42.79;100748.91;5063905;28;1040;-33
2023/08/10 04:04:25;;;;;;;;;;;;;;;25.17;42.19;100746.41;5045019;28;1157;-35
2023/08/10 04:06:51;;;;;;;;;;;;;;;25.01;42.31;100739.16;5038856;28;1113;-33
2023/08/10 04:09:17;;;;;;;;;;;;;;;25.09;43.31;100727.56;5039201;28;1233;-32
2023/08/10 04:11:42;;;;;;;;;;;;;;;25.56;42.60;100720.56;5072153;28;876;-30
2023/08/10 04:14:09;;;;;;;;;;;;;;;25.88;41.41;100728.72;5058483;28;1334;-34
2023/08/10 04:16:35;;;;;;;;;;;;;;;26.10;41.23;100724.41;5076128;28;1121;-34
2023/08/10 04:19:00;;;;;;;;;;;;;;;26.08;41.18;100720.22;5075604;28;1902;-34
2023/08/10 04:21:26;;;;;;;;;;;;;;;26.16;40.76;100725.56;5063675;28;1064;-30
2023/08/10 04:23:51;;;;;;;;;;;;;;;26.19;40.64;100729.78;5063771;28;1028;-34
2023/08/10 04:26:17;;;;;;;;;;;;;;;26.31;40.54;100719.44;5056127;28;1004;-32
2023/08/10 04:28:43;;;;;;;;;;;;;;;26.44;40.45;100724.25;5056277;28;1768;-34
2023/08/10 04:31:09;;;;;;;;;;;;;;;26.60;39.90;100726.84;5040610;28;1192;-31
2023/08/10 04:33:34;;;;;;;;;;;;;;;26.45;40.22;100713.28;5056359;28;1012;-34
2023/08/10 04:36:00;;;;;;;;;;;;;;;26.84;39.69;100711.44;5063024;28;900;-32
2023/08/10 04:38:26;;;;;;;;;;;;;;;26.93;39.33;100714.91;5062372;28;1921;-30
2023/08/10 04:40:51;;;;;;;;;;;;;;;26.93;39.58;100717.63;5056327;28;1136;-34
2023/08/10 04:43:17;;;;;;;;;;;;;;;26.86;39.45;100714.00;5056024;28;1036;-33
2023/08/10 04:45:43;;;;;;;;;;;;;;;26.96;38.97;100713.72;5056304;28;1084;-31
2023/08/10 04:48:10;;;;;;;;;;;;;;;27.02;38.40;100703.06;5055761;28;1108;-30
2023/08/10 04:50:35;;;;;;;;;;;;;;;27.11;38.85;100697.59;5056850;28;1024;-32
2023/08/10 04:53:02;;;;;;;;;;;;;;;27.26;38.28;100692.19;5055749;28;1258;-29
2023/08/10 04:55:28;;;;;;;;;;;;;;;27.34;37.46;100683.97;5069603;28;1365;-36
2023/08/10 04:57:53;;;;;;;;;;;;;;;27.37;37.46;100689.03;5067759;28;2094;-33
2023/08/10 05:00:19;;;;;;;;;;;;;;;27.35;37.89;100685.69;5055510;28;887;-32
2023/08/10 05:02:44;;;;;;;;;;;;;;;27.43;37.43;100692.84;5053801;28;2235;-30
2023/08/10 05:05:10;;;;;;;;;;;;;;;27.38;37.82;100696.09;5056587;28;1108;-29
2023/08/10 05:07:37;;;;;;;;;;;;;;;27.32;37.85;100696.84;5056424;28;1040;-30
2023/08/10 05:10:06;;;;;;;;;;;;;;;27.59;37.97;100693.69;5043876;28;1017;-32
2023/08/10 05:12:32;;;;;;;;;;;;;;;27.61;37.95;100689.75;5055873;28;849;-30
2023/08/10 05:14:57;;;;;;;;;;;;;;;27.53;38.67;100675.53;5055958;28;1110;-31
2023/08/10 05:17:23;;;;;;;;;;;;;;;26.41;40.51;100672.34;5074849;28;1977;-35
2023/08/10 05:19:48;;;;;;;;;;;;;;;26.29;41.09;100673.75;5069281;28;1079;-34
2023/08/10 05:22:14;;;;;;;;;;;;;;;25.89;42.51;100681.91;5055906;28;1059;-31
2023/08/10 05:24:40;;;;;;;;;;;;;;;25.73;42.15;100670.19;5055986;28;872;-35
2023/08/10 05:27:06;;;;;;;;;;;;;;;25.86;42.88;100683.09;5060327;28;1155;-29
2023/08/10 05:29:31;;;;;;;;;;;;;;;26.75;40.44;100675.63;5064690;28;1253;-32
2023/08/10 05:31:57;;;;;;;;;;;;;;;27.14;38.82;100676.44;5056387;28;1032;-31
2023/08/10 05:34:22;;;;;;;;;;;;;;;27.28;38.60;100679.34;5055662;28;1052;-33
2023/08/10 05:36:48;;;;;;;;;;;;;;;27.36;38.58;100681.13;5055795;28;1004;-29
2023/08/10 05:39:14;;;;;;;;;;;;;;;27.59;38.16;100680.16;5055751;28;1965;-34
2023/08/10 05:41:39;;;;;;;;;;;;;;;27.55;38.29;100670.75;5059789;28;1051;-29
2023/08/10 05:44:05;;;;;;;;;;;;;;;27.72;37.58;100672.28;5060223;28;1025;-32
2023/08/10 05:46:30;;;;;;;;;;;;;;;27.56;37.95;100672.44;5059861;28;1080;-34
2023/08/10 05:48:56;;;;;;;;;;;;;;;27.54;37.94;100669.94;5058896;28;1029;-32
2023/08/10 05:51:22;;;;;;;;;;;;;;;27.72;37.05;100677.69;5059291;28;1017;-31
2023/08/10 05:53:47;;;;;;;;;;;;;;;27.53;37.77;100675.53;5066952;28;1140;-30
2023/08/10 05:56:13;;;;;;;;;;;;;;;27.63;37.56;100676.91;5065504;28;1122;-36
2023/08/10 05:58:38;;;;;;;;;;;;;;;27.58;37.49;100670.38;5058934;28;1988;-32
2023/08/10 06:01:05;;;;;;;;;;;;;;;27.65;37.21;100675.88;5059267;28;926;-31
2023/08/10 06:03:30;;;;;;;;;;;;;;;27.65;37.35;100689.38;5072520;28;1151;-31
2023/08/10 06:05:56;;;;;;;;;;;;;;;27.88;37.43;100689.28;5059579;28;1235;-30
2023/08/10 06:08:22;;;;;;;;;;;;;;;28.08;37.13;100699.47;5059115;28;1051;-29
2023/08/10 06:10:50;;;;;;;;;;;;;;;28.08;37.91;100696.78;5059252;28;1103;-30
2023/08/10 06:13:18;;;;;;;;;;;;;;;28.04;37.96;100695.50;5058913;28;1420;-33
2023/08/10 06:15:43;;;;;;;;;;;;;;;28.01;38.11;100687.78;5070238;28;1167;-31
2023/08/10 06:18:09;;;;;;;;;;;;;;;27.92;38.73;100689.75;5079036;28;1914;-31
2023/08/10 06:20:36;;;;;;;;;;;;;;;28.15;38.21;100681.47;5059091;28;1139;-31
2023/08/10 06:23:02;;;;;;;;;;;;;;;27.87;38.17;100653.31;5058751;28;1190;-29
2023/08/10 06:25:30;;;;;;;;;;;;;;;28.02;38.09;100687.56;5061036;28;1250;-28
2023/08/10 06:27:57;;;;;;;;;;;;;;;28.05;37.91;100681.78;5064401;28;1139;-32
2023/08/10 06:30:23;;;;;;;;;;;;;;;28.07;37.77;100692.41;5058672;28;1325;-28
2023/08/10 06:32:49;;;;;;;;;;;;;;;28.02;37.81;100692.13;5071593;28;1360;-36
2023/08/10 06:35:14;;;;;;;;;;;;;;;28.08;37.76;100704.88;5058575;28;1127;-28
2023/08/10 06:37:40;;;;;;;;;;;;;;;28.08;37.89;100703.03;5074093;28;1906;-28
2023/08/10 06:40:08;;;;;;;;;;;;;;;28.13;37.92;100705.16;5078217;28;1276;-29
2023/08/10 06:42:34;;;;;;;;;;;;;;;28.02;38.14;100700.25;5065125;28;1119;-30
2023/08/10 06:45:05;;;;;;;;;;;;;;;27.99;38.07;100705.00;5068458;28;1098;-29
2023/08/10 06:47:31;;;;;;;;;;;;;;;28.03;38.22;100708.16;5061904;28;1072;-31
2023/08/10 06:49:57;;;;;;;;;;;;;;;28.20;38.01;100711.50;5068535;28;995;-32
2023/08/10 06:52:24;;;;;;;;;;;;;;;28.15;38.06;100705.81;5064503;28;1194;-30
2023/08/10 06:54:50;;;;;;;;;;;;;;;28.09;38.16;100704.69;5078579;28;1333;-32
2023/08/10 06:57:16;;;;;;;;;;;;;;;28.10;38.23;100700.97;5073462;28;1913;-32
2023/08/10 06:59:41;;;;;;;;;;;;;;;28.17;38.43;100705.63;5057965;28;1120;-28
2023/08/10 07:02:07;;;;;;;;;;;;;;;28.14;38.15;100704.16;5058199;28;1120;-29
2023/08/10 07:04:32;;;;;;;;;;;;;;;28.04;38.10;100711.72;5059185;28;1080;-29
2023/08/10 07:06:58;;;;;;;;;;;;;;;28.27;37.23;100702.59;5059011;28;993;-28
2023/08/10 07:09:23;;;;;;;;;;;;;;;28.38;37.37;100706.72;5057951;28;1144;-31
2023/08/10 07:11:49;;;;;;;;;;;;;;;28.21;37.92;100706.94;5057518;28;1112;-31
2023/08/10 07:14:14;;;;;;;;;;;;;;;28.40;37.78;100715.44;5061176;28;1079;-32
2023/08/10 07:16:40;;;;;;;;;;;;;;;28.48;38.09;100716.16;5077639;28;1364;-31
2023/08/10 07:19:06;;;;;;;;;;;;;;;28.35;38.13;100707.91;5058638;28;1922;-29
2023/08/10 07:21:32;;;;;;;;;;;;;;;28.30;38.46;100721.16;5059271;28;1088;-33
2023/08/10 07:23:57;;;;;;;;;;;;;;;28.36;39.48;100723.13;5069337;28;1036;-31
2023/08/10 07:26:23;;;;;;;;;;;;;;;28.48;40.21;100721.59;5057199;28;1066;-31
2023/08/10 07:28:49;;;;;;;;;;;;;;;28.67;37.72;100723.84;5058004;28;1060;-31
2023/08/10 07:31:15;;;;;;;;;;;;;;;28.45;38.85;100715.72;5057671;28;1012;-29
2023/08/10 07:33:41;;;;;;;;;;;;;;;28.65;38.15;100724.03;5057309;28;1012;-27
2023/08/10 07:36:07;;;;;;;;;;;;;;;28.46;38.79;100720.94;5057411;28;1099;-28
2023/08/10 07:38:33;;;;;;;;;;;;;;;28.73;38.18;100720.34;5057423;28;1910;-29
2023/08/10 07:40:58;;;;;;;;;;;;;;;28.70;37.53;100726.16;5057105;28;1092;-30
2023/08/10 07:43:24;;;;;;;;;;;;;;;28.70;37.76;100720.72;5057037;28;1148;-27
2023/08/10 07:45:50;;;;;;;;;;;;;;;28.87;37.95;100723.16;5071421;28;1183;-33
2023/08/10 07:48:15;;;;;;;;;;;;;;;28.81;38.19;100722.09;5057227;28;1120;-30
2023/08/10 07:50:41;;;;;;;;;;;;;;;29.02;37.70;100706.84;5060020;28;1149;-35
2023/08/10 07:53:06;;;;;;;;;;;;;;;28.96;37.55;100700.34;5077101;28;1273;-31
2023/08/10 07:55:32;;;;;;;;;;;;;;;28.94;38.06;100702.41;5076499;28;1257;-30
2023/08/10 07:57:57;;;;;;;;;;;;;;;28.78;36.28;100698.13;5071472;28;1985;-30
2023/08/10 08:00:23;;;;;;;;;;;;;;;28.79;36.42;100706.03;5056666;28;1511;-32
2023/08/10 08:02:51;;;;;;;;;;;;;;;28.94;36.39;100705.09;5055738;28;997;-31
2023/08/10 08:05:18;;;;;;;;;;;;;;;28.85;37.59;100720.66;5066190;28;1305;-31
2023/08/10 08:07:44;;;;;;;;;;;;;;;28.78;38.00;100720.59;5066973;28;1036;-33
2023/08/10 08:10:10;;;;;;;;;;;;;;;28.72;37.61;100727.63;5076389;28;1285;-29
2023/08/10 08:12:35;;;;;;;;;;;;;;;28.80;37.38;100723.09;5073868;28;1375;-31
2023/08/10 08:15:01;;;;;;;;;;;;;;;28.60;37.86;100718.34;5069465;28;1381;-31
2023/08/10 08:17:26;;;;;;;;;;;;;;;28.65;38.32;100721.31;5076392;28;1913;-31
2023/08/10 08:19:55;;;;;;;;;;;;;;;28.70;38.81;100721.56;5077107;28;1324;-30
2023/08/10 08:22:22;;;;;;;;;;;;;;;28.94;36.51;100710.53;5074451;28;1213;-33
2023/08/10 08:24:51;;;;;;;;;;;;;;;28.66;37.82;100709.44;5055972;28;1108;-32
2023/08/10 08:27:17;;;;;;;;;;;;;;;28.71;36.62;100715.13;5056842;28;1190;-30
2023/08/10 08:29:42;;;;;;;;;;;;;;;28.96;36.88;100722.81;5056885;28;1132;-29
2023/08/10 08:32:07;;;;;;;;;;;;;;;28.64;35.83;100725.06;5053583;28;1466;-30
2023/08/10 08:34:36;;;;;;;;;;;;;;;28.74;36.80;100716.63;5065994;28;1250;-29
2023/08/10 08:37:01;;;;;;;;;;;;;;;28.88;36.49;100725.66;5070534;28;1973;-29
2023/08/10 08:39:27;;;;;;;;;;;;;;;28.62;37.54;100729.81;5070304;28;1368;-36
2023/08/10 08:41:52;;;;;;;;;;;;;;;28.38;37.59;100710.22;5076525;28;1036;-30
2023/08/10 08:44:18;;;;;;;;;;;;;;;28.41;38.02;100712.56;5053134;28;1400;-33
2023/08/10 08:46:43;;;;;;;;;;;;;;;28.30;37.62;100708.47;5058833;28;1121;-33
2023/08/10 08:49:09;;;;;;;;;;;;;;;28.30;37.90;100708.47;5071651;28;1305;-35
2023/08/10 08:51:34;;;;;;;;;;;;;;;28.41;38.16;100707.13;5073745;28;1294;-31
2023/08/10 08:54:01;;;;;;;;;;;;;;;28.33;38.25;100718.94;5076824;28;1277;-38
2023/08/10 08:56:26;;;;;;;;;;;;;;;28.35;37.65;100719.59;5063077;28;1392;-32
2023/08/10 08:58:52;;;;;;;;;;;;;;;28.30;37.71;100722.00;5075974;28;1906;-34
2023/08/10 09:01:18;;;;;;;;;;;;;;;28.31;37.82;100717.44;5071457;28;1113;-31
2023/08/10 09:03:43;;;;;;;;;;;;;;;28.36;38.30;100725.84;5076366;28;1348;-31
2023/08/10 09:06:09;;;;;;;;;;;;;;;28.36;37.80;100726.66;5058188;28;1379;-31
2023/08/10 09:08:34;;;;;;;;;;;;;;;28.40;37.98;100727.13;5076540;28;1269;-33
2023/08/10 09:11:00;;;;;;;;;;;;;;;28.36;38.07;100723.13;5054098;28;1312;-35
2023/08/10 09:13:26;;;;;;;;;;;;;;;28.42;38.05;100722.34;5051721;28;1360;-34
2023/08/10 09:16:05;;;;;;;;;;;;;;;28.50;37.26;100734.06;5076064;28;1266;-32
2023/08/10 09:18:32;;;;;;;;;;;;;;;28.84;36.81;100727.09;5079771;28;1913;-32
2023/08/10 09:21:07;;;;;;;;;;;;;;;28.96;36.23;100733.66;5080307;28;1186;-29
2023/08/10 09:23:34;;;;;;;;;;;;;;;28.91;36.05;100736.09;5079370;28;1454;-33
2023/08/10 09:26:00;;;;;;;;;;;;;;;28.70;36.47;100734.25;5075210;28;1289;-32
2023/08/10 09:28:25;;;;;;;;;;;;;;;28.83;36.90;100730.81;5069816;28;1382;-31
2023/08/10 09:30:51;;;;;;;;;;;;;;;28.63;36.61;100726.09;5059687;28;1305;-28
2023/08/10 09:33:31;;;;;;;;;;;;;;;28.43;37.39;100729.44;5072515;28;1375;-33
2023/08/10 09:36:00;;;;;;;;;;;;;;;28.47;37.19;100710.94;5076830;28;1399;-28
2023/08/10 09:38:26;;;;;;;;;;;;;;;27.77;37.73;100606.84;5062502;28;1902;-30
2023/08/10 09:41:06;;;;;;;;;;;;;;;28.41;37.54;100717.13;5074423;28;1329;-31
2023/08/10 09:43:31;;;;;;;;;;;;;;;28.51;37.65;100722.22;5061159;28;1270;-28
2023/08/10 09:46:04;;;;;;;;;;;;;;;28.50;37.56;100725.94;5073688;28;1300;-28
2023/08/10 09:48:36;;;;;;;;;;;;;;;28.50;36.94;100717.84;5075858;28;1238;-28
2023/08/10 09:51:02;;;;;;;;;;;;;;;28.54;36.30;100711.88;5062576;28;1454;-32
2023/08/10 09:53:28;;;;;;;;;;;;;;;28.69;36.49;100705.53;5059460;28;1036;-32
2023/08/10 09:55:53;;;;;;;;;;;;;;;28.76;36.08;100703.69;5044658;28;1111;-35
2023/08/10 09:58:19;;;;;;;;;;;;;;;28.71;36.16;100689.94;5069466;28;1905;-30
2023/08/10 10:00:45;;;;;;;;;;;;;;;28.69;37.29;100702.81;5041918;28;1079;-30
2023/08/10 10:03:11;;;;;;;;;;;;;;;28.58;36.77;100707.72;5066803;28;1013;-32
2023/08/10 10:05:36;;;;;;;;;;;;;;;28.87;36.03;100702.34;5064501;28;1527;-29
2023/08/10 10:08:06;;;;;;;;;;;;;;;28.78;36.19;100688.09;5059889;28;1045;-30
2023/08/10 10:10:32;;;;;;;;;;;;;;;28.84;35.46;100691.91;5035285;28;1113;-30
2023/08/10 10:12:57;;;;;;;;;;;;;;;28.96;35.84;100698.44;5078170;28;1150;-28
2023/08/10 10:15:23;;;;;;;;;;;;;;;28.77;35.63;100696.44;5059149;28;865;-32
2023/08/10 10:17:52;;;;;;;;;;;;;;;28.82;35.89;100689.41;5040838;28;1973;-32
2023/08/10 10:20:18;;;;;;;;;;;;;;;28.83;35.58;100685.66;5042052;28;1072;-34
2023/08/10 10:22:44;;;;;;;;;;;;;;;28.56;37.56;100698.13;5040964;28;1309;-28
2023/08/10 10:25:14;;;;;;;;;;;;;;;28.76;36.42;100716.41;5058644;28;1485;-31
2023/08/10 10:27:40;;;;;;;;;;;;;;;28.68;37.41;100704.69;5053867;28;990;-32
2023/08/10 10:30:11;;;;;;;;;;;;;;;28.58;37.33;100705.03;5066231;28;1140;-31
2023/08/10 10:32:42;;;;;;;;;;;;;;;28.66;36.72;100703.22;5074285;28;1135;-29
2023/08/10 10:35:07;;;;;;;;;;;;;;;28.67;36.87;100704.88;5079096;28;1305;-35
2023/08/10 10:37:34;;;;;;;;;;;;;;;28.68;36.99;100701.13;5077995;28;1969;-33
2023/08/10 10:40:14;;;;;;;;;;;;;;;28.75;36.05;100701.19;5078864;28;1340;-32
2023/08/10 10:42:58;;;;;;;;;;;;;;;28.62;37.37;100699.22;5079097;28;1309;-30
2023/08/10 10:45:23;;;;;;;;;;;;;;;28.57;37.92;100687.13;5078017;28;1123;-30
2023/08/10 10:47:49;;;;;;;;;;;;;;;28.77;37.13;100683.75;5078812;28;1313;-28
2023/08/10 10:50:14;;;;;;;;;;;;;;;28.64;37.77;100687.19;5059614;28;1217;-30
2023/08/10 10:52:40;;;;;;;;;;;;;;;28.83;37.12;100682.09;5061707;28;1067;-32
2023/08/10 10:55:09;;;;;;;;;;;;;;;28.84;36.90;100681.09;5066541;28;1333;-32
2023/08/10 10:57:36;;;;;;;;;;;;;;;28.98;36.29;100690.16;5058405;28;1906;-32
2023/08/10 11:00:01;;;;;;;;;;;;;;;29.00;35.88;100682.69;5058501;28;1183;-31
2023/08/10 11:02:32;;;;;;;;;;;;;;;29.06;36.58;100668.34;5058301;28;1188;-33
2023/08/10 11:04:59;;;;;;;;;;;;;;;29.06;36.22;100671.06;5057896;28;1251;-30
2023/08/10 11:07:24;;;;;;;;;;;;;;;28.94;36.68;100678.03;5062138;28;1329;-29
2023/08/10 11:09:50;;;;;;;;;;;;;;;28.87;36.48;100686.09;5058120;28;1368;-35
2023/08/10 11:12:16;;;;;;;;;;;;;;;29.11;36.32;100689.44;5040285;28;1404;-30
2023/08/10 11:14:42;;;;;;;;;;;;;;;28.82;36.49;100681.28;5063881;28;1071;-33
2023/08/10 11:17:08;;;;;;;;;;;;;;;28.85;35.87;100691.72;5065313;28;1910;-32
2023/08/10 11:19:34;;;;;;;;;;;;;;;29.05;35.78;100688.34;5041077;28;1372;-32
2023/08/10 11:22:00;;;;;;;;;;;;;;;29.03;35.83;100693.13;5070871;28;1195;-34
2023/08/10 11:24:29;;;;;;;;;;;;;;;29.06;36.38;100690.00;5058662;28;1422;-29
2023/08/10 11:26:55;;;;;;;;;;;;;;;28.78;36.66;100698.94;5057185;28;1142;-35
2023/08/10 11:29:20;;;;;;;;;;;;;;;28.93;35.80;100692.59;5039622;28;1397;-30
2023/08/10 11:31:46;;;;;;;;;;;;;;;29.20;36.47;100693.66;5053195;28;1119;-35
2023/08/10 11:34:21;;;;;;;;;;;;;;;28.89;37.67;100696.72;5049099;28;1384;-38
2023/08/10 11:36:47;;;;;;;;;;;;;;;29.01;37.01;100688.94;5070798;28;1156;-32
2023/08/10 11:39:13;;;;;;;;;;;;;;;29.14;37.24;100680.06;5057024;28;1906;-30
2023/08/10 11:41:41;;;;;;;;;;;;;;;29.13;37.25;100671.09;5070887;28;1127;-33
2023/08/10 11:44:07;;;;;;;;;;;;;;;29.03;37.79;100678.75;5057764;28;1111;-29
2023/08/10 11:46:32;;;;;;;;;;;;;;;29.05;37.54;100673.97;5057133;28;1076;-32
2023/08/10 11:48:58;;;;;;;;;;;;;;;29.06;37.79;100672.94;5057460;28;1171;-35
2023/08/10 11:51:31;;;;;;;;;;;;;;;29.03;38.98;100673.34;5039461;28;1062;-34
2023/08/10 11:53:56;;;;;;;;;;;;;;;29.10;38.92;100663.38;5070136;28;1124;-34
2023/08/10 11:56:22;;;;;;;;;;;;;;;28.91;38.30;100667.59;5059839;28;1177;-33
2023/08/10 11:58:48;;;;;;;;;;;;;;;29.08;38.72;100666.28;5057446;28;1914;-32
2023/08/10 12:01:16;;;;;;;;;;;;;;;29.01;38.56;100664.56;5057049;28;1127;-32
2023/08/10 12:03:48;;;;;;;;;;;;;;;28.98;39.06;100665.78;5058926;28;1158;-29
2023/08/10 12:06:15;;;;;;;;;;;;;;;28.91;38.97;100649.47;5048931;28;1486;-31
2023/08/10 12:08:40;;;;;;;;;;;;;;;28.93;38.91;100647.41;5051866;28;1530;-33
2023/08/10 12:11:07;;;;;;;;;;;;;;;29.02;39.34;100652.69;5057185;28;1539;-33
2023/08/10 12:13:33;;;;;;;;;;;;;;;28.89;38.28;100648.00;5056387;28;1477;-32
2023/08/10 12:16:00;;;;;;;;;;;;;;;29.06;37.80;100646.69;5038719;28;897;-34
2023/08/10 12:18:26;;;;;;;;;;;;;;;28.97;39.17;100645.16;5056948;28;1973;-36
2023/08/10 12:20:52;;;;;;;;;;;;;;;29.01;36.94;100648.31;5056433;28;1231;-30
2023/08/10 12:23:17;;;;;;;;;;;;;;;28.99;38.24;100650.38;5055878;28;1166;-36
2023/08/10 12:25:46;;;;;;;;;;;;;;;28.91;36.34;100644.03;5056696;28;1451;-28
2023/08/10 12:28:12;;;;;;;;;;;;;;;28.86;37.25;100649.25;5056503;28;1150;-32
2023/08/10 12:30:37;;;;;;;;;;;;;;;28.99;37.51;100643.09;5057221;28;1057;-34
2023/08/10 12:33:04;;;;;;;;;;;;;;;28.93;37.48;100643.84;5056687;28;1020;-32
2023/08/10 12:35:30;;;;;;;;;;;;;;;28.91;37.03;100641.34;5043258;28;1083;-35
2023/08/10 12:37:55;;;;;;;;;;;;;;;28.79;37.73;100643.78;5056536;28;1911;-32
2023/08/10 12:40:21;;;;;;;;;;;;;;;29.08;36.57;100644.59;5055798;28;1685;-34
2023/08/10 12:42:46;;;;;;;;;;;;;;;29.00;36.41;100669.13;5056617;28;1392;-37